Time,TemperatureF,DewpointF,PressureIn,WindDirection,WindDirectionDegrees,WindSpeedMPH,WindSpeedGustMPH,Humidity,HourlyPrecipIn,Conditions,Clouds,dailyrainin,SoftwareType,DateUTC
2013-04-05 07:00:00,42.3,39.3,29.88,West,270,1.1,1.1,89,0.00,,,0.00,WUHU216HW,2013-04-05 11:00:00,
2013-04-05 07:05:00,42.3,39.3,29.88,WNW,293,1.1,1.1,89,0.00,,,0.00,WUHU216HW,2013-04-05 11:05:00,
2013-04-05 07:30:00,42.7,39.7,29.89,NW,315,1.3,1.3,89,0.00,,,0.00,WUHU216HW,2013-04-05 11:30:00,
2013-04-05 07:35:00,42.7,39.7,29.89,NW,315,1.3,1.3,89,0.00,,,0.00,WUHU216HW,2013-04-05 11:35:00,
2013-04-05 08:00:00,42.8,39.9,29.89,WNW,293,0.7,0.7,89,0.00,,,0.00,WUHU216HW,2013-04-05 12:00:00,
2013-04-05 08:05:00,42.8,39.9,29.89,WNW,293,0.7,0.7,89,0.00,,,0.00,WUHU216HW,2013-04-05 12:05:00,
2013-04-05 08:30:00,43.2,39.9,29.91,NNE,23,1.3,1.3,88,0.00,,,0.00,WUHU216HW,2013-04-05 12:30:00,
2013-04-05 08:35:00,43.2,39.9,29.91,NNE,23,1.3,1.3,88,0.00,,,0.00,WUHU216HW,2013-04-05 12:35:00,
2013-04-05 09:00:00,43.7,40.4,29.93,North,0,0.4,0.4,88,0.00,,,0.00,WUHU216HW,2013-04-05 13:00:00,
2013-04-05 09:05:00,43.7,40.4,29.93,North,0,0.4,0.4,88,0.00,,,0.00,WUHU216HW,2013-04-05 13:05:00,
2013-04-05 09:30:00,44.3,41.0,29.92,North,0,1.1,1.1,88,0.00,,,0.00,WUHU216HW,2013-04-05 13:30:00,
2013-04-05 09:35:00,44.3,41.0,29.92,North,0,1.1,1.1,88,0.00,,,0.00,WUHU216HW,2013-04-05 13:35:00,
2013-04-05 10:00:00,45.0,41.7,29.92,NNE,23,0.4,0.4,88,0.00,,,0.00,WUHU216HW,2013-04-05 14:00:00,
2013-04-05 10:05:00,45.0,41.7,29.92,NNE,23,0.4,0.4,88,0.00,,,0.00,WUHU216HW,2013-04-05 14:05:00,
2013-04-05 10:30:00,45.4,41.8,29.93,NNW,338,2.5,2.5,87,0.00,,,0.00,WUHU216HW,2013-04-05 14:30:00,
2013-04-05 10:35:00,45.4,41.8,29.93,NNW,338,2.5,2.5,87,0.00,,,0.00,WUHU216HW,2013-04-05 14:35:00,
2013-04-05 11:00:00,46.3,42.3,29.94,North,0,2.0,2.0,86,0.00,,,0.00,WUHU216HW,2013-04-05 15:00:00,
2013-04-05 11:05:00,46.3,42.3,29.94,North,0,2.0,2.0,86,0.00,,,0.00,WUHU216HW,2013-04-05 15:05:00,
2013-04-05 11:30:00,47.5,42.9,29.95,NE,45,5.1,5.1,84,0.00,,,0.00,WUHU216HW,2013-04-05 15:30:00,
2013-04-05 11:35:00,47.5,42.9,29.95,NE,45,5.1,5.1,84,0.00,,,0.00,WUHU216HW,2013-04-05 15:35:00,
2013-04-05 11:59:00,48.6,43.7,29.94,NNE,23,3.4,3.4,83,0.00,,,0.00,WUHU216HW,2013-04-05 15:59:00,
2013-04-05 12:00:00,48.6,43.7,29.94,NNE,23,3.4,3.4,83,0.00,,,0.00,WUHU216HW,2013-04-05 16:00:00,
2013-04-05 12:05:00,48.6,43.7,29.94,NNE,23,3.4,3.4,83,0.00,,,0.00,WUHU216HW,2013-04-05 16:05:00,
2013-04-05 12:30:00,50.8,44.8,29.95,NW,315,1.3,1.3,80,0.00,,,0.00,WUHU216HW,2013-04-05 16:30:00,
2013-04-05 12:35:00,50.8,44.8,29.95,NW,315,1.3,1.3,80,0.00,,,0.00,WUHU216HW,2013-04-05 16:35:00,
2013-04-05 12:59:00,52.4,45.7,29.95,NNE,23,3.4,3.4,78,0.00,,,0.00,WUHU216HW,2013-04-05 16:59:00,
2013-04-05 13:00:00,52.4,45.7,29.95,NNE,23,3.4,3.4,78,0.00,,,0.00,WUHU216HW,2013-04-05 17:00:00,
2013-04-05 13:05:00,52.4,45.7,29.95,NNE,23,3.4,3.4,78,0.00,,,0.00,WUHU216HW,2013-04-05 17:05:00,
2013-04-05 13:30:00,56.0,48.5,29.93,ENE,68,5.6,5.6,76,0.00,,,0.00,WUHU216HW,2013-04-05 17:30:00,
2013-04-05 13:35:00,56.0,48.5,29.93,ENE,68,5.6,5.6,76,0.00,,,0.00,WUHU216HW,2013-04-05 17:35:00,
2013-04-05 13:59:00,55.8,46.5,29.92,ENE,68,1.8,1.8,71,0.00,,,0.00,WUHU216HW,2013-04-05 17:59:00,
2013-04-05 14:00:00,55.8,46.5,29.92,ENE,68,1.8,1.8,71,0.00,,,0.00,WUHU216HW,2013-04-05 18:00:00,
2013-04-05 14:05:00,55.8,46.5,29.92,ENE,68,1.8,1.8,71,0.00,,,0.00,WUHU216HW,2013-04-05 18:05:00,
2013-04-05 14:30:00,56.2,46.9,29.91,North,0,2.5,2.5,71,0.00,,,0.00,WUHU216HW,2013-04-05 18:30:00,
2013-04-05 14:35:00,56.2,46.9,29.91,North,0,2.5,2.5,71,0.00,,,0.00,WUHU216HW,2013-04-05 18:35:00,
2013-04-05 14:59:00,56.3,46.3,29.91,North,0,1.6,1.6,69,0.00,,,0.00,WUHU216HW,2013-04-05 18:59:00,
2013-04-05 15:00:00,56.3,46.3,29.91,North,0,1.6,1.6,69,0.00,,,0.00,WUHU216HW,2013-04-05 19:00:00,
2013-04-05 15:05:00,56.3,46.3,29.91,North,0,1.6,1.6,69,0.00,,,0.00,WUHU216HW,2013-04-05 19:05:00,
2013-04-05 15:30:00,58.5,47.5,29.90,ENE,68,0.4,0.4,67,0.00,,,0.00,WUHU216HW,2013-04-05 19:30:00,
2013-04-05 15:35:00,58.5,47.5,29.90,ENE,68,0.4,0.4,67,0.00,,,0.00,WUHU216HW,2013-04-05 19:35:00,
2013-04-05 15:59:00,60.5,48.7,29.90,NNE,23,2.5,2.5,65,0.00,,,0.00,WUHU216HW,2013-04-05 19:59:00,
2013-04-05 16:00:00,60.5,48.7,29.90,NNE,23,2.5,2.5,65,0.00,,,0.00,WUHU216HW,2013-04-05 20:00:00,
2013-04-05 16:05:00,60.5,48.7,29.90,NNE,23,2.5,2.5,65,0.00,,,0.00,WUHU216HW,2013-04-05 20:05:00,
2013-04-05 16:30:00,60.8,47.0,29.88,North,0,4.7,4.7,60,0.00,,,0.00,WUHU216HW,2013-04-05 20:30:00,
2013-04-05 16:35:00,60.8,47.0,29.88,North,0,4.7,4.7,60,0.00,,,0.00,WUHU216HW,2013-04-05 20:35:00,
2013-04-05 16:59:00,62.6,47.6,29.89,ENE,68,0.9,0.9,58,0.00,,,0.00,WUHU216HW,2013-04-05 20:59:00,
2013-04-05 17:00:00,62.6,47.6,29.89,ENE,68,0.9,0.9,58,0.00,,,0.00,WUHU216HW,2013-04-05 21:00:00,
2013-04-05 17:05:00,62.6,47.6,29.89,ENE,68,0.9,0.9,58,0.00,,,0.00,WUHU216HW,2013-04-05 21:05:00,
2013-04-05 17:30:00,65.9,47.3,29.89,NNW,338,2.0,2.0,51,0.00,,,0.00,WUHU216HW,2013-04-05 21:30:00,
2013-04-05 17:35:00,65.9,47.3,29.89,NNW,338,2.0,2.0,51,0.00,,,0.00,WUHU216HW,2013-04-05 21:35:00,
2013-04-05 17:59:00,65.2,45.6,29.90,NE,45,1.8,1.8,49,0.00,,,0.00,WUHU216HW,2013-04-05 21:59:00,
2013-04-05 18:00:00,65.2,45.6,29.90,NE,45,1.8,1.8,49,0.00,,,0.00,WUHU216HW,2013-04-05 22:00:00,
2013-04-05 18:05:00,65.2,45.6,29.90,NE,45,1.8,1.8,49,0.00,,,0.00,WUHU216HW,2013-04-05 22:05:00,
2013-04-05 18:30:00,64.4,45.4,29.90,North,0,1.6,1.6,50,0.00,,,0.00,WUHU216HW,2013-04-05 22:30:00,
2013-04-05 18:35:00,64.4,45.4,29.90,North,0,1.6,1.6,50,0.00,,,0.00,WUHU216HW,2013-04-05 22:35:00,
2013-04-05 18:59:00,61.2,44.4,29.91,NNW,338,0.4,0.4,54,0.00,,,0.00,WUHU216HW,2013-04-05 22:59:00,
2013-04-05 19:00:00,61.2,44.4,29.91,NNW,338,0.4,0.4,54,0.00,,,0.00,WUHU216HW,2013-04-05 23:00:00,
2013-04-05 19:05:00,61.2,44.4,29.91,NNW,338,0.4,0.4,54,0.00,,,0.00,WUHU216HW,2013-04-05 23:05:00,
2013-04-05 19:30:00,59.4,45.5,29.92,West,270,0.0,0.0,60,0.00,,,0.00,WUHU216HW,2013-04-05 23:30:00,
2013-04-05 19:35:00,59.4,45.5,29.92,West,270,0.0,0.0,60,0.00,,,0.00,WUHU216HW,2013-04-05 23:35:00,
2013-04-05 20:00:00,55.8,44.2,29.94,West,270,0.0,0.0,65,0.00,,,0.00,WUHU216HW,2013-04-06 00:00:00,
2013-04-05 20:05:00,55.8,44.2,29.94,West,270,0.0,0.0,65,0.00,,,0.00,WUHU216HW,2013-04-06 00:05:00,
2013-04-05 20:30:00,52.9,43.0,29.95,West,270,0.0,0.0,69,0.00,,,0.00,WUHU216HW,2013-04-06 00:30:00,
2013-04-05 20:35:00,52.9,43.0,29.95,West,270,0.0,0.0,69,0.00,,,0.00,WUHU216HW,2013-04-06 00:35:00,
2013-04-05 21:00:00,50.6,42.2,29.97,WSW,248,0.0,0.0,73,0.00,,,0.00,WUHU216HW,2013-04-06 01:00:00,
2013-04-05 21:05:00,50.6,42.2,29.97,WSW,248,0.0,0.0,73,0.00,,,0.00,WUHU216HW,2013-04-06 01:05:00,
2013-04-05 21:30:00,49.1,41.9,29.98,WSW,248,0.0,0.0,76,0.00,,,0.00,WUHU216HW,2013-04-06 01:30:00,
2013-04-05 21:35:00,49.1,41.9,29.98,WSW,248,0.0,0.0,76,0.00,,,0.00,WUHU216HW,2013-04-06 01:35:00,
2013-04-05 22:00:00,48.1,41.5,29.99,WSW,248,0.0,0.0,78,0.00,,,0.00,WUHU216HW,2013-04-06 02:00:00,
2013-04-05 22:05:00,48.1,41.5,29.99,WSW,248,0.0,0.0,78,0.00,,,0.00,WUHU216HW,2013-04-06 02:05:00,
2013-04-05 22:30:00,47.2,41.0,30.00,WSW,248,0.0,0.0,79,0.00,,,0.00,WUHU216HW,2013-04-06 02:30:00,
2013-04-05 22:35:00,47.2,41.0,30.00,WSW,248,0.0,0.0,79,0.00,,,0.00,WUHU216HW,2013-04-06 02:35:00,
2013-04-05 22:59:00,46.4,40.3,30.00,WSW,248,0.0,0.0,79,0.00,,,0.00,WUHU216HW,2013-04-06 02:59:00,
2013-04-05 23:00:00,46.4,40.3,30.00,WSW,248,0.0,0.0,79,0.00,,,0.00,WUHU216HW,2013-04-06 03:00:00,
2013-04-05 23:05:00,46.4,40.3,30.00,WSW,248,0.0,0.0,79,0.00,,,0.00,WUHU216HW,2013-04-06 03:05:00,
2013-04-05 23:30:00,45.2,39.4,30.01,WSW,248,0.0,0.0,80,0.00,,,0.00,WUHU216HW,2013-04-06 03:30:00,
2013-04-05 23:35:00,45.2,39.4,30.01,WSW,248,0.0,0.0,80,0.00,,,0.00,WUHU216HW,2013-04-06 03:35:00,
2013-04-05 23:59:00,44.5,39.0,30.01,WSW,248,0.0,0.0,81,0.00,,,0.00,WUHU216HW,2013-04-06 03:59:00,